createdAt,value
2023-04-19T00:00:58.559Z,50.71
2023-04-19T00:01:58.556Z,36.66
2023-04-19T00:02:58.844Z,43.24
2023-04-19T00:03:58.663Z,48.46
2023-04-19T00:04:58.611Z,35.37
2023-04-19T00:05:58.667Z,46.25
2023-04-19T00:06:58.625Z,45.52
2023-04-19T00:07:58.448Z,45.80
2023-04-19T00:08:58.504Z,36.99
2023-04-19T00:09:58.665Z,38.31
2023-04-19T00:10:58.457Z,39.96
2023-04-19T00:11:58.425Z,51.15
2023-04-19T00:12:58.412Z,39.42
2023-04-19T00:13:58.359Z,35.83
2023-04-19T00:14:58.386Z,43.98
2023-04-19T00:15:58.376Z,47.85
2023-04-19T00:16:58.512Z,43.43
2023-04-19T00:17:58.446Z,41.21
2023-04-19T00:18:58.362Z,52.33
2023-04-19T00:19:58.334Z,38.02
2023-04-19T00:20:58.331Z,34.41
2023-04-19T00:21:58.372Z,38.38
2023-04-19T00:22:58.360Z,52.12
2023-04-19T00:23:58.307Z,48.88
2023-04-19T00:24:58.265Z,39.47
2023-04-19T00:25:58.314Z,46.78
2023-04-19T00:26:58.266Z,44.79
2023-04-19T00:27:58.280Z,45.92
2023-04-19T00:28:58.259Z,43.25
2023-04-19T00:29:58.270Z,35.76
2023-04-19T00:30:58.357Z,45.45
2023-04-19T00:31:58.270Z,38.36
2023-04-19T00:32:58.316Z,50.76
2023-04-19T00:33:58.209Z,36.96
2023-04-19T00:34:58.178Z,39.94
2023-04-19T00:35:58.163Z,49.76
2023-04-19T00:36:58.180Z,50.00
2023-04-19T00:37:58.229Z,47.20
2023-04-19T00:38:58.220Z,41.04
2023-04-19T00:39:58.183Z,45.06
2023-04-19T00:40:58.224Z,48.94
2023-04-19T00:41:58.209Z,40.70
2023-04-19T00:42:58.211Z,36.50
2023-04-19T00:43:58.143Z,47.31
2023-04-19T00:44:58.862Z,45.82
2023-04-19T00:45:58.119Z,47.69
2023-04-19T00:46:58.155Z,44.08
2023-04-19T00:47:58.077Z,43.28
2023-04-19T00:48:58.061Z,48.09
2023-04-19T00:49:58.946Z,35.92
2023-04-19T00:50:58.053Z,39.57
2023-04-19T00:51:58.041Z,43.00
2023-04-19T00:52:58.006Z,40.73
2023-04-19T00:53:58.150Z,44.36
2023-04-19T00:54:57.992Z,34.12
2023-04-19T00:55:58.000Z,40.70
2023-04-19T00:56:57.987Z,42.86
2023-04-19T00:57:57.945Z,35.63
2023-04-19T00:58:58.011Z,52.32
2023-04-19T00:59:57.921Z,50.28
2023-04-19T01:00:58.843Z,41.27
2023-04-19T01:01:58.022Z,43.13
2023-04-19T01:02:57.989Z,39.75
2023-04-19T01:03:57.919Z,48.15
2023-04-19T01:04:57.898Z,48.87
2023-04-19T01:05:57.875Z,48.11
2023-04-19T01:06:57.886Z,42.21
2023-04-19T01:07:57.980Z,38.95
2023-04-19T01:08:57.849Z,42.56
2023-04-19T01:09:57.791Z,44.10
2023-04-19T01:10:57.899Z,51.78
2023-04-19T01:11:57.798Z,46.09
2023-04-19T01:12:57.958Z,41.47
2023-04-19T01:13:57.779Z,45.33
2023-04-19T01:14:57.787Z,48.35
2023-04-19T01:15:57.817Z,42.56
2023-04-19T01:16:57.776Z,49.78
2023-04-19T01:17:57.834Z,50.26
2023-04-19T01:18:57.876Z,47.07
2023-04-19T01:19:57.695Z,44.21
2023-04-19T01:20:57.758Z,45.69
2023-04-19T01:21:57.708Z,48.00
2023-04-19T01:22:57.913Z,39.53
2023-04-19T01:23:57.761Z,49.25
2023-04-19T01:24:57.688Z,49.11
2023-04-19T01:25:57.652Z,48.21
2023-04-19T01:26:57.768Z,53.42
2023-04-19T01:27:57.666Z,39.58
2023-04-19T01:28:57.676Z,43.83
2023-04-19T01:29:57.655Z,44.52
2023-04-19T01:30:57.693Z,44.29
2023-04-19T01:31:57.698Z,46.17
2023-04-19T01:32:57.680Z,42.57
2023-04-19T01:33:57.627Z,34.76
2023-04-19T01:34:57.654Z,43.80
2023-04-19T01:35:57.667Z,34.22
2023-04-19T01:36:57.554Z,44.53
2023-04-19T01:37:58.358Z,47.79
2023-04-19T01:38:57.571Z,48.64
2023-04-19T01:39:57.605Z,48.20
2023-04-19T01:40:57.519Z,37.77
2023-04-19T01:41:57.487Z,43.60
2023-04-19T01:42:57.661Z,41.07
2023-04-19T01:43:57.484Z,42.61
2023-04-19T01:44:57.520Z,47.00
2023-04-19T01:45:57.445Z,43.98
2023-04-19T01:46:57.541Z,46.20
2023-04-19T01:47:57.559Z,41.35
2023-04-19T01:48:57.487Z,50.48
2023-04-19T01:49:58.020Z,47.34
2023-04-19T01:50:57.455Z,46.22
2023-04-19T01:51:57.451Z,35.06
2023-04-19T01:52:57.475Z,42.05
2023-04-19T01:53:57.397Z,48.78
2023-04-19T01:54:57.409Z,35.46
2023-04-19T01:55:57.376Z,44.25
2023-04-19T01:56:57.350Z,45.21
2023-04-19T01:57:57.440Z,45.91
2023-04-19T01:58:58.348Z,48.07
2023-04-19T01:59:57.419Z,49.07
2023-04-19T02:00:57.388Z,44.70
2023-04-19T02:01:57.425Z,45.27
2023-04-19T02:02:57.443Z,44.62
2023-04-19T02:03:57.358Z,51.48
2023-04-19T02:04:57.307Z,48.36
2023-04-19T02:05:57.307Z,46.42
2023-04-19T02:06:57.255Z,41.40
2023-04-19T02:07:57.380Z,42.98
2023-04-19T02:08:57.283Z,39.75
2023-04-19T02:09:57.302Z,42.91
2023-04-19T02:10:58.015Z,48.07
2023-04-19T02:11:57.187Z,45.94
2023-04-19T02:12:57.268Z,35.64
2023-04-19T02:13:57.170Z,49.92
2023-04-19T02:15:11.350Z,51.58
2023-04-19T02:15:57.208Z,49.62
2023-04-19T02:16:57.262Z,44.08
2023-04-19T02:17:57.237Z,48.22
2023-04-19T02:18:57.138Z,42.71
2023-04-19T02:19:57.203Z,37.68
2023-04-19T02:20:57.176Z,35.61
2023-04-19T02:21:57.129Z,46.14
2023-04-19T02:22:57.120Z,50.74
2023-04-19T02:23:57.130Z,52.94
2023-04-19T02:24:57.079Z,44.58
2023-04-19T02:25:57.081Z,41.93
2023-04-19T02:26:57.113Z,36.87
2023-04-19T02:27:57.045Z,53.48
2023-04-19T02:28:57.026Z,50.96
2023-04-19T02:29:57.111Z,42.27
2023-04-19T02:30:57.042Z,48.24
2023-04-19T02:31:57.120Z,44.31
2023-04-19T02:32:57.049Z,42.32
2023-04-19T02:33:57.105Z,48.49
2023-04-19T02:34:57.021Z,52.77
2023-04-19T02:35:57.043Z,45.80
2023-04-19T02:36:57.049Z,47.02
2023-04-19T02:37:57.000Z,47.17
2023-04-19T02:38:56.925Z,47.69
2023-04-19T02:39:56.898Z,41.68
2023-04-19T02:40:57.018Z,48.52
2023-04-19T02:41:56.916Z,47.69
2023-04-19T02:42:56.956Z,52.04
2023-04-19T02:43:56.885Z,52.31
2023-04-19T02:44:56.831Z,48.92
2023-04-19T02:45:57.002Z,47.04
2023-04-19T02:46:56.903Z,49.15
2023-04-19T02:47:57.793Z,52.86
2023-04-19T02:48:56.894Z,47.71
2023-04-19T02:49:56.935Z,45.18
2023-04-19T02:50:56.875Z,42.01
2023-04-19T02:51:57.037Z,51.25
2023-04-19T02:52:56.829Z,55.22
2023-04-19T02:53:56.796Z,42.25
2023-04-19T02:54:57.448Z,48.60
2023-04-19T02:55:56.770Z,49.02
2023-04-19T02:57:07.010Z,52.84
2023-04-19T02:57:56.755Z,55.80
2023-04-19T02:58:56.849Z,54.86
2023-04-19T02:59:57.711Z,52.41
2023-04-19T03:00:56.775Z,48.83
2023-04-19T03:01:56.806Z,50.90
2023-04-19T03:02:56.945Z,53.39
2023-04-19T03:03:56.856Z,47.71
2023-04-19T03:04:56.699Z,51.53
2023-04-19T03:05:56.732Z,49.06
2023-04-19T03:06:56.725Z,50.17
2023-04-19T03:07:56.775Z,54.52
2023-04-19T03:08:56.646Z,52.61
2023-04-19T03:09:56.626Z,52.77
2023-04-19T03:10:57.507Z,50.52
2023-04-19T03:11:56.631Z,50.27
2023-04-19T03:12:56.785Z,52.69
2023-04-19T03:13:56.570Z,49.37
2023-04-19T03:14:56.608Z,55.78
2023-04-19T03:15:56.604Z,52.42
2023-04-19T03:16:56.724Z,51.65
2023-04-19T03:17:57.253Z,50.43
2023-04-19T03:18:56.603Z,50.95
2023-04-19T03:19:56.593Z,54.38
2023-04-19T03:20:56.595Z,55.97
2023-04-19T03:21:56.773Z,55.12
2023-04-19T03:22:56.514Z,53.95
2023-04-19T03:23:56.554Z,53.95
2023-04-19T03:24:56.560Z,50.31
2023-04-19T03:25:56.482Z,50.29
2023-04-19T03:26:56.510Z,52.37
2023-04-19T03:27:56.563Z,55.18
2023-04-19T03:28:56.686Z,56.31
2023-04-19T03:29:56.478Z,54.25
2023-04-19T03:30:56.489Z,53.21
2023-04-19T03:31:57.361Z,55.78
2023-04-19T03:32:56.502Z,56.76
2023-04-19T03:33:56.428Z,56.54
2023-04-19T03:34:56.369Z,49.94
2023-04-19T03:35:56.458Z,56.32
2023-04-19T03:36:56.503Z,56.93
2023-04-19T03:37:56.393Z,54.37
2023-04-19T03:38:57.312Z,54.38
2023-04-19T03:39:56.332Z,58.83
2023-04-19T03:40:57.692Z,57.10
2023-04-19T03:41:56.378Z,54.87
2023-04-19T03:42:58.825Z,57.03
2023-04-19T03:43:56.268Z,56.22
2023-04-19T03:44:56.456Z,55.59
2023-04-19T03:45:56.289Z,54.71
2023-04-19T03:46:56.430Z,57.80
2023-04-19T03:47:57.038Z,57.40
2023-04-19T03:48:56.272Z,56.46
2023-04-19T03:49:56.252Z,57.16
2023-04-19T03:50:56.302Z,57.74
2023-04-19T03:51:56.259Z,55.51
2023-04-19T03:52:56.994Z,55.83
2023-04-19T03:53:56.194Z,55.10
2023-04-19T03:54:56.194Z,53.87
2023-04-19T03:55:56.213Z,56.00
2023-04-19T03:56:56.466Z,55.60
2023-04-19T03:57:56.415Z,54.83
2023-04-19T03:58:56.128Z,56.12
2023-04-19T03:59:56.144Z,55.92
2023-04-19T04:00:56.116Z,56.82
2023-04-19T04:01:56.173Z,57.30
2023-04-19T04:02:56.377Z,57.03
2023-04-19T04:03:56.324Z,55.28
2023-04-19T04:04:56.168Z,55.59
2023-04-19T04:05:56.147Z,55.98
2023-04-19T04:07:39.368Z,56.41
2023-04-19T04:07:56.070Z,56.77
2023-04-19T04:08:56.153Z,56.30
2023-04-19T04:09:56.110Z,56.34
2023-04-19T04:10:56.051Z,53.22
2023-04-19T04:11:56.025Z,58.90
2023-04-19T04:12:56.326Z,59.56
2023-04-19T04:13:56.036Z,58.07
2023-04-19T04:14:55.998Z,57.45
2023-04-19T04:15:56.543Z,57.06
2023-04-19T04:16:56.039Z,57.43
2023-04-19T04:17:56.082Z,59.49
2023-04-19T04:18:56.014Z,58.54
2023-04-19T04:19:59.005Z,60.19
2023-04-19T04:20:55.997Z,57.20
2023-04-19T04:21:56.140Z,57.87
2023-04-19T04:22:56.112Z,60.10
2023-04-19T04:23:55.880Z,58.57
2023-04-19T04:24:56.448Z,56.34
2023-04-19T04:25:55.920Z,57.23
2023-04-19T04:26:55.916Z,56.94
2023-04-19T04:27:55.871Z,59.71
2023-04-19T04:28:55.888Z,57.76
2023-04-19T04:29:55.884Z,59.00
2023-04-19T04:30:55.965Z,57.22
2023-04-19T04:31:56.016Z,56.95
2023-04-19T04:32:59.148Z,56.22
2023-04-19T04:33:55.864Z,55.29
2023-04-19T04:34:55.796Z,57.60
2023-04-19T04:35:55.825Z,55.74
2023-04-19T04:36:55.838Z,59.57
2023-04-19T04:37:56.213Z,58.56
2023-04-19T04:38:55.845Z,58.80
2023-04-19T04:39:56.074Z,57.87
2023-04-19T04:40:57.069Z,56.98
2023-04-19T04:41:55.751Z,55.80
2023-04-19T04:42:55.783Z,56.05
2023-04-19T04:44:10.799Z,59.93
2023-04-19T04:44:57.741Z,57.56
2023-04-19T04:46:02.074Z,56.69
2023-04-19T04:46:55.735Z,57.40
2023-04-19T04:47:55.775Z,60.31
2023-04-19T04:55:00.732Z,58.05
2023-04-19T04:56:00.628Z,59.37
2023-04-19T04:57:00.677Z,58.10
2023-04-19T04:58:00.912Z,59.46
2023-04-19T04:59:00.585Z,58.22
2023-04-19T05:00:00.703Z,58.35
2023-04-19T05:01:00.791Z,57.32
2023-04-19T05:02:00.676Z,58.79
2023-04-19T05:03:00.669Z,58.81
2023-04-19T05:04:00.663Z,56.84
2023-04-19T05:05:00.511Z,59.39
2023-04-19T05:06:02.514Z,56.71
2023-04-19T05:07:00.769Z,60.32
2023-04-19T05:08:00.512Z,58.72
2023-04-19T05:09:00.580Z,58.38
2023-04-19T05:10:04.086Z,60.22
2023-04-19T05:11:00.536Z,59.38
2023-04-19T05:12:01.422Z,58.87
2023-04-19T05:13:01.324Z,57.88
2023-04-19T05:14:01.452Z,59.58
2023-04-19T05:15:02.834Z,57.45
2023-04-19T05:16:01.060Z,58.34
2023-04-19T05:17:00.721Z,57.84
2023-04-19T05:18:01.153Z,58.29
2023-04-19T05:19:03.540Z,56.63
2023-04-19T05:20:00.367Z,59.07
2023-04-19T05:21:01.198Z,56.68
2023-04-19T05:22:00.485Z,58.05
2023-04-19T05:23:00.554Z,56.69
2023-04-19T05:24:00.328Z,57.88
2023-04-19T05:25:01.901Z,57.06
2023-04-19T05:26:00.348Z,57.25
2023-04-19T05:27:02.821Z,58.22
2023-04-19T05:28:01.585Z,57.30
2023-04-19T05:29:01.308Z,59.81
2023-04-19T05:30:00.428Z,58.83
2023-04-19T05:31:00.328Z,60.64
2023-04-19T05:32:06.161Z,57.78
2023-04-19T05:33:00.479Z,56.18
2023-04-19T05:34:00.235Z,56.47
2023-04-19T05:35:00.359Z,59.83
2023-04-19T05:36:00.243Z,59.73
2023-04-19T05:37:00.263Z,58.38
2023-04-19T05:38:00.404Z,58.55
2023-04-19T05:39:00.407Z,55.61
2023-04-19T05:40:00.477Z,58.26
2023-04-19T05:41:02.906Z,59.17
2023-04-19T05:42:04.663Z,58.24
2023-04-19T05:43:00.205Z,58.65
2023-04-19T05:44:00.220Z,59.24
2023-04-19T05:45:00.125Z,55.32
2023-04-19T05:46:21.334Z,58.28
2023-04-19T05:47:05.561Z,59.08
2023-04-19T05:48:00.246Z,55.28
2023-04-19T05:49:07.188Z,58.51
2023-04-19T05:50:00.168Z,58.69
2023-04-19T05:51:00.542Z,58.45
2023-04-19T05:52:01.744Z,58.38
2023-04-19T05:53:00.146Z,59.90
2023-04-19T05:54:00.223Z,59.17
2023-04-19T05:55:00.074Z,56.69
2023-04-19T05:56:02.307Z,56.51
2023-04-19T05:57:00.226Z,56.51
2023-04-19T05:58:00.313Z,56.04
2023-04-19T05:59:00.008Z,57.06
2023-04-19T06:01:00.155Z,56.56
2023-04-19T06:02:03.606Z,57.45
2023-04-19T06:03:01.413Z,55.92
2023-04-19T06:04:00.628Z,57.04
2023-04-19T06:05:07.955Z,59.07
2023-04-19T06:06:02.106Z,56.13
2023-04-19T06:07:02.070Z,55.82
2023-04-19T06:08:02.775Z,56.50
2023-04-19T06:09:02.078Z,58.03
2023-04-19T06:10:00.793Z,58.79
2023-04-19T06:11:05.131Z,55.96
2023-04-19T06:12:02.025Z,55.33
2023-04-19T06:13:00.512Z,58.45
2023-04-19T06:14:01.770Z,56.59
2023-04-19T06:14:59.909Z,59.78
2023-04-19T06:16:04.954Z,55.28
2023-04-19T06:16:59.926Z,54.64
2023-04-19T06:18:01.414Z,58.43
2023-04-19T06:33:39.021Z,57.99
2023-04-19T06:34:39.113Z,56.13
2023-04-19T06:35:40.283Z,58.07
2023-04-19T06:36:40.105Z,57.99
2023-04-19T06:37:40.130Z,56.02
2023-04-19T06:38:40.520Z,58.83
2023-04-19T06:39:40.183Z,56.65
2023-04-19T06:40:40.078Z,56.60
2023-04-19T06:41:40.083Z,58.85
2023-04-19T06:42:40.085Z,55.27
2023-04-19T06:43:40.239Z,55.24
2023-04-19T06:44:40.061Z,56.72
2023-04-19T06:45:40.751Z,56.58
2023-04-19T06:46:40.034Z,55.88
2023-04-19T06:47:40.193Z,56.76
2023-04-19T06:48:40.811Z,54.92
2023-04-19T06:49:40.085Z,55.00
2023-04-19T06:50:40.003Z,56.89
2023-04-19T06:51:40.040Z,56.73
2023-04-19T06:52:40.261Z,52.76
2023-04-19T06:53:40.045Z,56.37
2023-04-19T06:54:40.115Z,57.19
2023-04-19T06:55:39.980Z,55.49
2023-04-19T06:56:42.086Z,58.08
2023-04-19T07:00:48.335Z,59.39
2023-04-19T07:01:48.047Z,56.95
2023-04-19T07:02:48.010Z,55.56
2023-04-19T07:03:48.050Z,56.85
2023-04-19T07:04:49.588Z,50.36
2023-04-19T07:06:00.107Z,58.16
2023-04-19T07:06:54.657Z,56.82
2023-04-19T07:07:52.007Z,53.10
2023-04-19T07:08:50.493Z,55.65
2023-04-19T07:09:49.938Z,56.09
2023-04-19T07:10:48.981Z,58.46
2023-04-19T07:11:49.199Z,56.92
2023-04-19T07:12:48.985Z,56.65
2023-04-19T07:13:49.333Z,57.85
2023-04-19T07:14:51.464Z,56.86
2023-04-19T07:15:49.076Z,53.62
2023-04-19T07:16:50.195Z,59.67
2023-04-19T07:17:48.991Z,58.41
2023-04-19T07:18:49.187Z,58.39
2023-04-19T07:19:49.015Z,57.49
2023-04-19T07:20:49.029Z,57.36
2023-04-19T07:21:49.016Z,58.30
2023-04-19T07:22:48.972Z,60.47
2023-04-19T07:23:48.862Z,57.99
2023-04-19T07:24:49.020Z,55.84
2023-04-19T07:25:48.821Z,58.60
2023-04-19T07:26:49.348Z,58.02
2023-04-19T07:27:48.811Z,56.13
2023-04-19T07:28:48.932Z,58.62
2023-04-19T07:29:48.794Z,55.52
2023-04-19T07:30:48.884Z,57.31
2023-04-19T07:31:48.889Z,57.31
2023-04-19T07:32:49.219Z,55.99
2023-04-19T07:33:48.899Z,53.21
2023-04-19T07:34:48.886Z,57.51
2023-04-19T07:35:48.987Z,56.64
2023-04-19T07:36:49.617Z,55.66
2023-04-19T07:37:48.683Z,56.21
2023-04-19T07:38:48.732Z,54.45
2023-04-19T07:39:48.776Z,54.76
2023-04-19T07:40:49.151Z,54.19
2023-04-19T07:41:48.804Z,56.17
2023-04-19T07:42:48.722Z,54.32
2023-04-19T07:43:48.642Z,57.74
2023-04-19T07:44:48.636Z,57.11
2023-04-19T07:45:48.631Z,54.33
2023-04-19T07:46:48.680Z,57.81
2023-04-19T07:47:48.997Z,57.69
2023-04-19T07:48:48.586Z,53.28
2023-04-19T07:49:48.590Z,52.76
2023-04-19T07:50:48.578Z,53.85
2023-04-19T07:51:48.489Z,53.82
2023-04-19T07:52:48.748Z,55.06
2023-04-19T07:53:48.638Z,54.74
2023-04-19T07:54:48.520Z,56.07
2023-04-19T07:55:48.570Z,53.87
2023-04-19T07:56:48.743Z,58.90
2023-04-19T07:57:48.507Z,55.10
2023-04-19T07:58:56.497Z,54.70
2023-04-19T07:59:49.822Z,66.90
2023-04-19T08:00:48.665Z,62.69
2023-04-19T08:01:48.766Z,53.18
2023-04-19T08:02:51.100Z,54.11
2023-04-19T08:03:49.619Z,53.86
2023-04-19T08:04:48.948Z,53.27
2023-04-19T08:05:48.604Z,55.22
2023-04-19T08:06:48.531Z,54.74
2023-04-19T08:07:48.348Z,55.99
2023-04-19T08:08:49.775Z,56.66
2023-04-19T08:09:48.722Z,55.97
2023-04-19T08:10:48.670Z,56.69
2023-04-19T08:11:48.306Z,53.93
2023-04-19T08:13:03.545Z,54.98
2023-04-19T08:14:02.849Z,55.27
2023-04-19T08:14:59.942Z,56.90
2023-04-19T08:16:27.113Z,57.17
2023-04-19T08:17:14.453Z,52.99
2023-04-19T08:17:50.675Z,54.54
2023-04-19T08:18:48.461Z,55.89
2023-04-19T08:19:48.461Z,54.30
2023-04-19T08:20:48.318Z,57.42
2023-04-19T08:21:48.255Z,54.73
2023-04-19T08:22:48.325Z,57.46
2023-04-19T08:23:48.993Z,60.22
2023-04-19T08:24:49.280Z,53.68
2023-04-19T08:25:48.399Z,58.23
2023-04-19T08:26:48.937Z,54.32
2023-04-19T08:27:48.375Z,56.60
2023-04-19T08:28:48.202Z,57.06
2023-04-19T08:29:48.291Z,54.92
2023-04-19T08:30:48.476Z,56.63
2023-04-19T08:31:48.152Z,55.24
2023-04-19T08:32:48.136Z,56.76
2023-04-19T08:33:48.079Z,55.83
2023-04-19T08:34:48.112Z,57.04
2023-04-19T08:35:48.267Z,56.11
2023-04-19T08:36:55.947Z,55.52
2023-04-19T08:37:50.566Z,54.95
2023-04-19T08:38:54.973Z,54.91
2023-04-19T08:39:49.133Z,55.92
2023-04-19T08:40:48.093Z,54.77
2023-04-19T08:41:52.865Z,55.72
2023-04-19T08:42:50.090Z,57.14
2023-04-19T08:43:48.058Z,55.29
2023-04-19T08:45:06.359Z,55.30
2023-04-19T08:45:50.022Z,55.28
2023-04-19T08:46:48.035Z,53.43
2023-04-19T08:47:59.723Z,54.93
2023-04-19T08:48:50.958Z,55.63
2023-04-19T08:49:51.205Z,57.01
2023-04-19T08:51:01.235Z,54.86
2023-04-19T08:51:48.923Z,54.68
2023-04-19T08:52:55.899Z,55.00
2023-04-19T08:53:49.904Z,55.49
2023-04-19T08:54:47.897Z,54.08
2023-04-19T08:56:03.383Z,57.29
2023-04-19T08:56:49.945Z,56.06
2023-04-19T08:57:47.822Z,58.21
2023-04-19T08:59:48.822Z,54.95
2023-04-19T09:00:47.796Z,57.14
2023-04-19T09:01:47.975Z,53.52
2023-04-19T09:02:48.450Z,56.96
2023-04-19T09:04:02.623Z,57.74
2023-04-19T09:04:50.074Z,56.89
2023-04-19T09:05:48.899Z,54.39
2023-04-19T09:06:47.819Z,55.47
2023-04-19T09:07:47.774Z,52.19
2023-04-19T09:08:48.147Z,52.70
2023-04-19T09:10:02.105Z,48.63
2023-04-19T09:10:49.785Z,55.27
2023-04-19T09:11:47.832Z,56.49
2023-04-19T09:12:48.315Z,57.01
2023-04-19T09:13:47.801Z,55.68
2023-04-19T09:15:00.564Z,58.43
2023-04-19T09:15:49.745Z,53.73
2023-04-19T09:16:48.538Z,56.19
2023-04-19T09:17:48.028Z,54.20
2023-04-19T09:18:59.951Z,57.84
2023-04-19T09:19:50.262Z,55.22
2023-04-19T09:20:47.657Z,54.69
2023-04-19T09:21:47.675Z,54.89
2023-04-19T09:22:47.735Z,56.14
2023-04-19T09:23:47.639Z,54.55
2023-04-19T09:26:48.651Z,53.53
2023-04-19T09:27:47.610Z,57.02
2023-04-19T09:28:47.614Z,54.71
2023-04-19T09:29:47.580Z,54.67
2023-04-19T09:30:59.972Z,54.16
2023-04-19T09:31:51.873Z,54.09
2023-04-19T09:32:49.073Z,56.43
2023-04-19T09:33:47.609Z,57.96
2023-04-19T09:34:47.660Z,58.31
2023-04-19T09:35:48.302Z,54.19
2023-04-19T09:36:47.463Z,56.15
2023-04-19T09:38:48.501Z,55.88
2023-04-19T09:39:47.481Z,55.27
2023-04-19T09:40:47.688Z,54.78
2023-04-19T09:41:47.516Z,56.38
2023-04-19T09:43:00.722Z,55.94
2023-04-19T09:45:20.882Z,55.34
2023-04-19T09:45:49.485Z,58.15
2023-04-19T09:46:47.495Z,55.10
2023-04-19T09:47:47.506Z,56.54
2023-04-19T09:48:47.494Z,55.59
2023-04-19T09:49:49.444Z,56.46
2023-04-19T09:50:55.947Z,57.67
2023-04-19T09:51:49.350Z,57.91
2023-04-19T09:52:47.328Z,55.85
2023-04-19T09:53:47.322Z,54.45
2023-04-19T09:54:47.402Z,54.93
2023-04-19T09:55:59.647Z,52.27
2023-04-19T09:56:48.460Z,53.88
2023-04-19T09:57:47.277Z,56.29
2023-04-19T09:58:53.138Z,48.49
2023-04-19T09:59:49.420Z,55.29
2023-04-19T10:00:49.018Z,55.78
2023-04-19T10:01:48.367Z,53.05
2023-04-19T10:02:48.704Z,51.71
2023-04-19T10:03:47.680Z,54.02
2023-04-19T10:05:03.248Z,54.74
2023-04-19T10:05:49.370Z,55.86
2023-04-19T10:07:49.216Z,56.30
2023-04-19T10:08:47.246Z,56.02
2023-04-19T10:09:53.020Z,54.35
2023-04-19T10:10:49.166Z,53.21
2023-04-19T10:11:48.530Z,57.17
2023-04-19T10:13:11.060Z,55.79
2023-04-19T10:13:49.122Z,55.54
2023-04-19T10:14:47.144Z,54.86
2023-04-19T10:15:52.470Z,57.83
2023-04-19T10:16:49.140Z,54.42
2023-04-19T10:17:47.246Z,54.01
2023-04-19T10:18:47.163Z,54.44
2023-04-19T10:19:47.126Z,54.55
2023-04-19T10:20:47.144Z,56.10
2023-04-19T10:21:47.144Z,55.57
2023-04-19T10:22:46.992Z,56.90
2023-04-19T10:23:47.141Z,56.39
2023-04-19T10:24:48.297Z,55.76
2023-04-19T10:25:47.037Z,58.30
2023-04-19T10:26:47.851Z,58.36
2023-04-19T10:27:46.997Z,52.91
2023-04-19T10:28:46.987Z,54.68
2023-04-19T10:29:46.972Z,52.88
2023-04-19T10:30:46.972Z,52.52
2023-04-19T10:31:47.524Z,55.18
2023-04-19T10:32:47.041Z,55.99
2023-04-19T10:33:47.514Z,56.34
2023-04-19T10:34:46.947Z,56.61
2023-04-19T10:35:47.041Z,56.50
2023-04-19T10:36:46.923Z,55.37
2023-04-19T10:37:46.865Z,65.26
2023-04-19T10:38:47.049Z,54.37
2023-04-19T10:39:46.849Z,52.00
2023-04-19T10:40:46.891Z,50.52
2023-04-19T10:41:46.804Z,52.98
2023-04-19T10:42:46.973Z,55.37
2023-04-19T10:43:46.857Z,55.02
2023-04-19T10:44:46.814Z,56.53
2023-04-19T10:45:46.787Z,55.97
2023-04-19T10:46:46.848Z,55.95
2023-04-19T10:47:46.851Z,53.77
2023-04-19T10:48:46.805Z,57.76
2023-04-19T10:49:46.925Z,54.16
2023-04-19T10:50:46.778Z,53.68
2023-04-19T10:51:46.881Z,51.49
2023-04-19T10:52:46.737Z,53.79
2023-04-19T10:53:46.915Z,51.61
2023-04-19T10:54:46.996Z,54.85
2023-04-19T10:55:46.723Z,55.53
2023-04-19T10:56:46.828Z,54.22
2023-04-19T10:57:46.682Z,55.60
2023-04-19T10:58:48.478Z,52.71
2023-04-19T10:59:46.771Z,52.37
2023-04-19T11:00:46.633Z,52.29
2023-04-19T11:01:46.963Z,56.28
2023-04-19T11:02:46.845Z,54.05
2023-04-19T11:03:46.975Z,52.29
2023-04-19T11:04:46.658Z,53.13
2023-04-19T11:05:47.352Z,51.86
2023-04-19T11:06:46.635Z,55.24
2023-04-19T11:07:46.586Z,57.05
2023-04-19T11:08:46.637Z,55.45
2023-04-19T11:09:46.595Z,53.93
2023-04-19T11:10:46.679Z,57.47
2023-04-19T11:11:46.538Z,55.34
2023-04-19T11:12:46.565Z,53.00
2023-04-19T11:13:46.517Z,53.56
2023-04-19T11:14:46.588Z,53.74
2023-04-19T11:15:46.522Z,52.11
2023-04-19T11:16:46.672Z,56.11
2023-04-19T11:17:46.555Z,54.72
2023-04-19T11:18:46.552Z,53.93
2023-04-19T11:19:47.316Z,53.40
2023-04-19T11:20:46.463Z,53.21
2023-04-19T11:21:46.454Z,54.21
2023-04-19T11:22:46.507Z,53.43
2023-04-19T11:23:46.499Z,49.65
2023-04-19T11:24:47.383Z,51.55
2023-04-19T11:25:46.472Z,53.79
2023-04-19T11:26:46.439Z,53.97
2023-04-19T11:27:46.515Z,51.82
2023-04-19T11:28:46.346Z,53.60
2023-04-19T11:29:46.384Z,56.20
2023-04-19T11:30:46.448Z,57.12
2023-04-19T11:31:47.119Z,55.25
2023-04-19T11:32:46.321Z,49.25
2023-04-19T11:33:46.413Z,56.08
2023-04-19T11:34:46.374Z,52.71
2023-04-19T11:35:46.511Z,56.58
2023-04-19T11:36:46.267Z,55.92
2023-04-19T11:37:46.259Z,53.58
2023-04-19T11:38:46.270Z,53.85
2023-04-19T11:39:46.301Z,54.83
2023-04-19T11:40:46.237Z,55.21
2023-04-19T11:41:46.306Z,54.45
2023-04-19T11:47:24.973Z,53.01
2023-04-19T11:48:24.940Z,54.52
2023-04-19T11:49:24.996Z,55.57
2023-04-19T11:50:24.936Z,56.33
2023-04-19T11:51:26.283Z,56.47
2023-04-19T11:52:26.184Z,56.07
2023-04-19T11:53:26.087Z,57.48
2023-04-19T11:54:26.060Z,54.91
2023-04-19T11:55:26.075Z,59.22
2023-04-19T11:56:26.028Z,54.96
2023-04-19T11:57:26.095Z,56.47
2023-04-19T11:58:26.122Z,57.28
2023-04-19T11:59:27.173Z,56.10
2023-04-19T12:00:26.040Z,57.32
2023-04-19T12:01:26.028Z,55.49
2023-04-19T12:02:26.183Z,55.47
2023-04-19T12:03:26.698Z,54.67
2023-04-19T12:04:27.155Z,53.73
2023-04-19T12:05:26.329Z,53.70
2023-04-19T12:06:26.017Z,55.98
2023-04-19T12:07:26.101Z,54.89
2023-04-19T12:08:26.130Z,56.30
2023-04-19T12:09:26.004Z,57.45
2023-04-19T12:10:26.052Z,56.69
2023-04-19T12:11:25.977Z,52.79
2023-04-19T12:12:25.918Z,52.02
2023-04-19T12:13:25.923Z,56.79
2023-04-19T12:14:25.914Z,56.01
2023-04-19T12:15:27.558Z,57.43
2023-04-19T12:16:26.881Z,56.73
2023-04-19T12:17:25.871Z,57.43
2023-04-19T12:18:25.929Z,55.31
2023-04-19T12:19:25.882Z,56.02
2023-04-19T12:20:25.867Z,52.90
2023-04-19T12:21:25.895Z,55.53
2023-04-19T12:22:25.894Z,57.83
2023-04-19T12:23:25.829Z,57.21
2023-04-19T12:24:26.014Z,58.10
2023-04-19T12:25:25.907Z,57.27
2023-04-19T12:26:25.775Z,56.43
2023-04-19T12:27:26.316Z,56.11
2023-04-19T12:28:25.764Z,55.17
2023-04-19T12:29:25.829Z,56.21
2023-04-19T12:30:25.724Z,56.77
2023-04-19T12:31:25.848Z,57.63
2023-04-19T12:32:25.736Z,56.61
2023-04-19T12:33:25.668Z,55.51
2023-04-19T12:34:25.737Z,56.50
2023-04-19T12:35:25.715Z,56.95
2023-04-19T12:36:25.812Z,55.57
2023-04-19T12:37:25.627Z,56.61
2023-04-19T12:38:25.692Z,56.79
2023-04-19T12:39:25.630Z,57.17
2023-04-19T12:40:25.645Z,57.70
2023-04-19T12:41:25.620Z,56.17
2023-04-19T12:42:25.635Z,56.49
2023-04-19T12:43:26.396Z,52.56
2023-04-19T12:44:25.617Z,54.65
2023-04-19T12:45:25.620Z,56.65
2023-04-19T12:46:25.611Z,56.13
2023-04-19T12:47:25.630Z,56.67
2023-04-19T12:48:25.582Z,57.64
2023-04-19T12:49:25.611Z,56.38
2023-04-19T12:50:25.543Z,57.42
2023-04-19T12:51:25.644Z,58.48
2023-04-19T12:52:25.623Z,54.07
2023-04-19T12:53:25.445Z,54.34
2023-04-19T12:54:25.639Z,57.74
2023-04-19T12:55:25.512Z,59.78
2023-04-19T12:56:25.410Z,55.94
2023-04-19T12:57:25.418Z,55.93
2023-04-19T12:58:25.442Z,55.06
2023-04-19T12:59:25.537Z,54.35
2023-04-19T13:00:25.448Z,55.53
2023-04-19T13:01:25.507Z,51.59
2023-04-19T13:02:25.566Z,55.39
2023-04-19T13:03:25.515Z,53.10
2023-04-19T13:04:25.698Z,53.32
2023-04-19T13:05:25.372Z,55.08
2023-04-19T13:06:25.355Z,57.66
2023-04-19T13:07:25.421Z,57.10
2023-04-19T13:08:37.431Z,54.71
2023-04-19T13:09:27.350Z,55.23
2023-04-19T13:10:25.347Z,52.00
2023-04-19T13:11:25.370Z,55.87
2023-04-19T13:12:25.333Z,54.91
2023-04-19T13:13:25.333Z,52.77
2023-04-19T13:14:25.385Z,55.77
2023-04-19T13:15:26.252Z,57.29
2023-04-19T13:16:25.455Z,52.55
2023-04-19T13:17:25.275Z,55.36
2023-04-19T13:18:25.320Z,54.15
2023-04-19T13:19:25.226Z,55.57
2023-04-19T13:20:26.087Z,55.79
2023-04-19T13:21:25.238Z,54.27
2023-04-19T13:22:25.232Z,55.75
2023-04-19T13:23:25.173Z,54.17
2023-04-19T13:24:25.438Z,54.93
2023-04-19T13:25:25.252Z,57.13
2023-04-19T13:26:25.159Z,56.37
2023-04-19T13:27:25.146Z,55.95
2023-04-19T13:28:25.124Z,56.19